Time;durP1;ratioP1;P1;durP2;ratioP2;P2;SDS_P1;SDS_P2;PMS_P1;PMS_P2;Temp;Humidity;BMP_temperature;BMP_pressure;BME280_temperature;BME280_humidity;BME280_pressure;Samples;Min_cycle;Max_cycle;Signal;HPM_P1;HPM_P2
2024/01/06 00:00:23;;;;;;;7.72;5.00;;;8.50;99.90;;;;;;10363459;28;20030;-67
2024/01/06 00:05:24;;;;;;;6.93;4.40;;;8.50;99.90;;;;;;10360341;28;20084;-68
2024/01/06 00:10:24;;;;;;;9.13;5.10;;;8.50;99.90;;;;;;10366923;28;20037;-67
2024/01/06 00:15:25;;;;;;;7.53;4.75;;;8.50;99.90;;;;;;10350067;28;20025;-67
2024/01/06 00:20:25;;;;;;;7.47;4.35;;;8.50;99.90;;;;;;10362802;28;20336;-67
2024/01/06 00:25:26;;;;;;;9.32;4.43;;;8.50;99.90;;;;;;10363400;28;20036;-67
2024/01/06 00:30:27;;;;;;;7.88;5.05;;;8.70;99.90;;;;;;10355704;28;20117;-68
2024/01/06 00:35:27;;;;;;;8.27;4.90;;;8.40;99.90;;;;;;10360330;28;20033;-67
2024/01/06 00:40:28;;;;;;;7.25;4.20;;;8.40;99.90;;;;;;10360320;28;20041;-67
2024/01/06 00:45:28;;;;;;;8.90;5.38;;;8.40;99.90;;;;;;10357433;28;20033;-66
2024/01/06 00:50:29;;;;;;;9.30;4.80;;;8.40;99.90;;;;;;10364034;28;20627;-65
2024/01/06 00:55:29;;;;;;;6.88;4.38;;;8.40;99.90;;;;;;10357630;28;20485;-67
2024/01/06 01:00:30;;;;;;;8.82;5.05;;;8.40;99.90;;;;;;10367168;28;20026;-67
2024/01/06 01:05:30;;;;;;;7.65;4.55;;;8.40;99.90;;;;;;10364591;28;20180;-67
2024/01/06 01:10:31;;;;;;;6.80;4.30;;;8.30;99.90;;;;;;10359972;28;20044;-67
2024/01/06 01:15:32;;;;;;;8.63;4.75;;;8.30;99.90;;;;;;10347624;28;20506;-67
2024/01/06 01:20:32;;;;;;;7.25;4.35;;;8.40;99.90;;;;;;10333893;28;20554;-67
2024/01/06 01:25:33;;;;;;;6.80;4.18;;;8.30;99.90;;;;;;10367324;28;20398;-67
2024/01/06 01:30:33;;;;;;;7.93;4.82;;;8.30;99.90;;;;;;10345248;28;20339;-68
2024/01/06 01:35:34;;;;;;;8.48;4.75;;;8.30;99.90;;;;;;10356242;28;20042;-67
2024/01/06 01:40:34;;;;;;;6.43;4.00;;;8.30;99.90;;;;;;10362259;28;20224;-68
2024/01/06 01:45:35;;;;;;;8.07;4.63;;;8.30;99.90;;;;;;10360800;28;20511;-67
2024/01/06 01:50:35;;;;;;;7.97;4.65;;;8.30;99.90;;;;;;10358770;28;20418;-66
2024/01/06 01:55:36;;;;;;;9.77;5.13;;;8.30;99.90;;;;;;10364145;28;20130;-67
2024/01/06 02:00:37;;;;;;;7.97;4.70;;;8.30;99.90;;;;;;10361707;28;20026;-68
2024/01/06 02:05:37;;;;;;;8.98;4.63;;;8.20;99.90;;;;;;10362075;28;20488;-66
2024/01/06 02:10:38;;;;;;;9.57;5.38;;;8.20;99.90;;;;;;10344453;28;20501;-68
2024/01/06 02:15:41;;;;;;;9.32;5.43;;;8.20;99.90;;;;;;10357432;28;20030;-66
2024/01/06 02:20:44;;;;;;;8.65;4.78;;;8.20;99.90;;;;;;10338416;28;20587;-67
2024/01/06 02:25:45;;;;;;;8.65;4.32;;;8.20;99.90;;;;;;10365566;28;20442;-67
2024/01/06 02:30:45;;;;;;;9.25;4.63;;;8.20;99.90;;;;;;10362070;28;20128;-67
2024/01/06 02:35:46;;;;;;;9.88;5.57;;;8.20;99.90;;;;;;10360443;28;20037;-67
2024/01/06 02:40:47;;;;;;;11.82;5.60;;;8.20;99.90;;;;;;10365803;28;20101;-67
2024/01/06 02:45:47;;;;;;;9.10;5.40;;;8.20;99.90;;;;;;10360448;28;20044;-65
2024/01/06 02:50:48;;;;;;;10.82;5.93;;;8.20;99.90;;;;;;10358215;28;20149;-67
2024/01/06 02:55:48;;;;;;;10.32;5.70;;;8.20;99.90;;;;;;10358807;28;20029;-66
2024/01/06 03:00:49;;;;;;;9.55;5.50;;;8.10;99.90;;;;;;10363491;28;20465;-67
2024/01/06 03:05:50;;;;;;;9.10;5.55;;;8.10;99.90;;;;;;10360264;28;20525;-67
2024/01/06 03:10:50;;;;;;;8.60;5.20;;;8.10;99.90;;;;;;10362132;28;20486;-66
2024/01/06 03:15:51;;;;;;;9.23;5.43;;;8.10;99.90;;;;;;10359302;28;20029;-66
2024/01/06 03:20:51;;;;;;;10.15;5.47;;;8.10;99.90;;;;;;10364706;28;20295;-67
2024/01/06 03:25:52;;;;;;;11.68;6.15;;;8.10;99.90;;;;;;10363680;28;20053;-68
2024/01/06 03:30:52;;;;;;;9.90;5.70;;;8.00;99.90;;;;;;10369625;28;20276;-68
2024/01/06 03:35:53;;;;;;;11.70;5.88;;;8.10;99.90;;;;;;10366921;28;20602;-67
2024/01/06 03:40:55;;;;;;;9.00;5.15;;;8.00;99.90;;;;;;10369445;28;20041;-68
2024/01/06 03:45:57;;;;;;;9.52;5.60;;;8.00;99.90;;;;;;10370281;28;20026;-66
2024/01/06 03:51:03;;;;;;;9.68;5.10;;;8.00;99.90;;;;;;10363356;28;20465;-66
2024/01/06 03:56:04;;;;;;;11.52;5.28;;;8.00;99.90;;;;;;10362973;28;20029;-67
2024/01/06 04:01:05;;;;;;;8.65;5.22;;;8.00;99.90;;;;;;10360148;28;20021;-67
2024/01/06 04:06:05;;;;;;;8.60;5.18;;;8.00;99.90;;;;;;10369244;28;20108;-67
2024/01/06 04:11:06;;;;;;;8.25;5.05;;;8.00;99.90;;;;;;10366177;28;20026;-66
2024/01/06 04:16:07;;;;;;;9.38;5.38;;;8.00;99.90;;;;;;10345122;28;20210;-67
2024/01/06 04:21:08;;;;;;;9.20;5.03;;;8.00;99.90;;;;;;10367022;28;20053;-67
2024/01/06 04:26:09;;;;;;;9.98;4.85;;;8.00;99.90;;;;;;10374708;28;20037;-67
2024/01/06 04:31:10;;;;;;;9.35;5.40;;;7.90;99.90;;;;;;10362901;28;20310;-67
2024/01/06 04:36:11;;;;;;;8.43;5.00;;;7.90;99.90;;;;;;10369453;28;20124;-67
2024/01/06 04:41:11;;;;;;;8.95;5.15;;;7.90;99.90;;;;;;10369663;28;20083;-67
2024/01/06 04:46:12;;;;;;;8.25;4.75;;;7.90;99.90;;;;;;10366486;28;20029;-66
2024/01/06 04:51:13;;;;;;;10.02;5.65;;;7.90;99.90;;;;;;10366313;28;20024;-67
2024/01/06 04:56:14;;;;;;;8.60;4.55;;;7.90;99.90;;;;;;10371650;28;20025;-67
2024/01/06 05:01:14;;;;;;;9.65;5.45;;;7.90;99.90;;;;;;10359069;28;20072;-65
2024/01/06 05:06:15;;;;;;;11.02;5.55;;;7.80;99.90;;;;;;10368881;28;20125;-67
2024/01/06 05:11:16;;;;;;;8.70;4.78;;;7.80;99.90;;;;;;10368065;28;20030;-67
2024/01/06 05:16:16;;;;;;;8.55;5.00;;;7.80;99.90;;;;;;10357918;28;20048;-67
2024/01/06 05:21:17;;;;;;;8.55;4.75;;;7.80;99.90;;;;;;10360456;28;20025;-67
2024/01/06 05:26:17;;;;;;;10.00;4.82;;;7.80;99.90;;;;;;10365523;28;20025;-66
2024/01/06 05:31:18;;;;;;;8.18;4.82;;;7.80;99.90;;;;;;10350462;28;20045;-67
2024/01/06 05:36:20;;;;;;;9.68;5.22;;;7.80;99.90;;;;;;10364860;28;20022;-67
2024/01/06 05:41:20;;;;;;;10.07;5.30;;;7.80;99.90;;;;;;10363012;28;20026;-67
2024/01/06 05:46:24;;;;;;;10.13;4.80;;;7.80;99.90;;;;;;10365596;28;20018;-66
2024/01/06 05:51:25;;;;;;;11.18;5.78;;;7.80;99.90;;;;;;10367538;28;20307;-68
2024/01/06 05:56:26;;;;;;;11.52;5.30;;;7.70;99.90;;;;;;10358172;28;20018;-67
2024/01/06 06:01:27;;;;;;;10.35;5.35;;;7.70;99.90;;;;;;10365659;28;20038;-67
2024/01/06 06:06:27;;;;;;;9.40;5.28;;;7.90;99.90;;;;;;10367436;28;20084;-68
2024/01/06 06:11:28;;;;;;;9.32;5.40;;;7.70;99.90;;;;;;10367022;28;20096;-67
2024/01/06 06:16:29;;;;;;;10.77;5.88;;;7.70;99.90;;;;;;10365118;28;20117;-67
2024/01/06 06:21:30;;;;;;;10.38;5.50;;;7.70;99.90;;;;;;10360906;28;20056;-66
2024/01/06 06:26:31;;;;;;;9.25;5.18;;;7.70;99.90;;;;;;10370960;28;20529;-66
2024/01/06 06:31:31;;;;;;;9.18;4.38;;;7.70;99.90;;;;;;10370433;28;20117;-67
2024/01/06 06:36:32;;;;;;;10.38;5.05;;;7.70;99.90;;;;;;10367327;28;20022;-66
2024/01/06 06:41:33;;;;;;;9.40;5.57;;;7.70;99.90;;;;;;10362863;28;20118;-67
2024/01/06 06:46:33;;;;;;;8.68;4.70;;;7.60;99.90;;;;;;10367021;28;20013;-66
2024/01/06 06:51:34;;;;;;;10.00;4.72;;;7.60;99.90;;;;;;10369600;28;20480;-67
2024/01/06 06:56:34;;;;;;;8.48;5.00;;;7.60;99.90;;;;;;10362023;28;20514;-68
2024/01/06 07:01:35;;;;;;;7.82;4.70;;;7.60;99.90;;;;;;10363221;28;20021;-65
2024/01/06 07:06:36;;;;;;;10.02;5.43;;;7.60;99.90;;;;;;10374511;28;20026;-68
2024/01/06 07:11:36;;;;;;;9.23;4.75;;;7.60;99.90;;;;;;10370506;28;20504;-67
2024/01/06 07:16:37;;;;;;;10.27;5.30;;;7.60;99.90;;;;;;10370955;28;20022;-67
2024/01/06 07:21:37;;;;;;;10.18;4.97;;;7.60;99.90;;;;;;10368446;28;20497;-67
2024/01/06 07:26:38;;;;;;;9.07;5.10;;;7.60;99.90;;;;;;10367528;28;20030;-67
2024/01/06 07:31:38;;;;;;;10.00;5.32;;;8.20;99.90;;;;;;10366134;28;20112;-67
2024/01/06 07:36:39;;;;;;;8.95;4.75;;;7.60;99.90;;;;;;10358126;28;20021;-68
2024/01/06 07:41:40;;;;;;;9.48;5.15;;;7.50;99.90;;;;;;10369793;28;20414;-66
2024/01/06 07:46:40;;;;;;;10.35;5.10;;;7.50;99.90;;;;;;10363947;28;20037;-66
2024/01/06 07:51:41;;;;;;;10.55;5.32;;;7.50;99.90;;;;;;10368162;28;20112;-67
2024/01/06 07:56:43;;;;;;;9.23;4.93;;;7.50;99.90;;;;;;10376531;28;20022;-68
2024/01/06 08:01:44;;;;;;;8.63;5.10;;;7.50;99.90;;;;;;10372035;28;20037;-67
2024/01/06 08:06:44;;;;;;;8.63;4.45;;;7.50;99.90;;;;;;10350617;28;20034;-66
2024/01/06 08:11:48;;;;;;;9.93;5.43;;;7.50;99.90;;;;;;10366909;28;20105;-67
2024/01/06 08:16:48;;;;;;;8.27;5.30;;;7.50;99.90;;;;;;10367687;28;20022;-66
2024/01/06 08:21:49;;;;;;;10.02;5.00;;;7.50;99.90;;;;;;10363017;28;20041;-67
2024/01/06 08:26:49;;;;;;;8.88;4.90;;;7.50;99.90;;;;;;10360871;28;20092;-68
2024/01/06 08:31:52;;;;;;;10.75;5.35;;;7.50;99.90;;;;;;10368467;28;20034;-67
2024/01/06 08:36:53;;;;;;;8.13;4.72;;;7.50;99.90;;;;;;10371514;28;20036;-67
2024/01/06 08:41:53;;;;;;;10.40;4.95;;;7.50;99.90;;;;;;10364609;28;20099;-67
2024/01/06 08:46:55;;;;;;;7.85;4.28;;;7.50;99.90;;;;;;10373918;28;20022;-67
2024/01/06 08:51:58;;;;;;;8.05;4.70;;;7.50;99.90;;;;;;10366432;28;20173;-67
2024/01/06 08:56:58;;;;;;;7.35;4.32;;;7.40;99.90;;;;;;10376818;28;20057;-68
2024/01/06 09:02:01;;;;;;;10.20;4.57;;;7.40;99.90;;;;;;10355736;28;20021;-67
2024/01/06 09:07:01;;;;;;;7.07;4.03;;;7.40;99.90;;;;;;10372402;28;20101;-67
2024/01/06 09:12:02;;;;;;;8.93;4.40;;;7.40;99.90;;;;;;10375488;28;20029;-67
2024/01/06 09:17:04;;;;;;;10.07;5.15;;;7.50;99.90;;;;;;10378503;28;20171;-67
2024/01/06 09:22:04;;;;;;;8.25;4.30;;;7.40;99.90;;;;;;10371956;28;20424;-67
2024/01/06 09:27:05;;;;;;;9.95;4.88;;;7.40;99.90;;;;;;10363864;28;20324;-67
2024/01/06 09:32:07;;;;;;;7.03;4.10;;;7.40;99.90;;;;;;10345651;28;20085;-67
2024/01/06 09:37:08;;;;;;;6.05;3.80;;;7.40;99.90;;;;;;10362881;28;20506;-69
2024/01/06 09:42:10;;;;;;;8.73;4.85;;;7.40;99.90;;;;;;10353672;28;20439;-67
2024/01/06 09:47:12;;;;;;;10.65;5.30;;;7.30;99.90;;;;;;10381212;28;20025;-67
2024/01/06 09:52:17;;;;;;;8.52;4.78;;;7.30;99.90;;;;;;10375251;28;20028;-67
2024/01/06 09:57:35;;;;;;;9.85;4.82;;;7.30;99.90;;;;;;10374523;28;20029;-67
2024/01/06 10:02:36;;;;;;;9.00;5.50;;;7.30;99.90;;;;;;10372965;28;20532;-67
2024/01/06 10:07:36;;;;;;;7.35;4.18;;;7.30;99.90;;;;;;10372310;28;20686;-67
2024/01/06 10:12:39;;;;;;;11.10;5.18;;;7.30;99.90;;;;;;10372297;28;20030;-67
2024/01/06 10:17:41;;;;;;;10.05;4.80;;;7.30;99.90;;;;;;10373347;28;20567;-67
2024/01/06 10:22:42;;;;;;;9.15;5.32;;;7.30;99.90;;;;;;10351897;28;20053;-67
2024/01/06 10:27:43;;;;;;;8.93;5.05;;;7.40;99.90;;;;;;10356177;28;20026;-66
2024/01/06 10:32:47;;;;;;;10.90;5.40;;;7.40;99.90;;;;;;10357378;28;20045;-67
2024/01/06 10:37:48;;;;;;;9.25;5.10;;;7.30;99.90;;;;;;10362358;28;20430;-66
2024/01/06 10:42:49;;;;;;;9.50;5.68;;;7.40;99.90;;;;;;10357519;28;20028;-67
2024/01/06 10:47:50;;;;;;;10.50;5.82;;;7.40;99.90;;;;;;10364307;28;20482;-67
2024/01/06 10:52:54;;;;;;;10.70;5.65;;;7.40;99.90;;;;;;10358663;28;20465;-67
2024/01/06 10:57:56;;;;;;;9.35;5.18;;;7.40;99.90;;;;;;10359241;28;20032;-66
2024/01/06 11:02:59;;;;;;;10.60;5.97;;;7.30;99.90;;;;;;10354339;28;20093;-67
2024/01/06 11:08:00;;;;;;;9.40;5.50;;;7.40;99.90;;;;;;10363420;28;20072;-67
2024/01/06 11:13:10;;;;;;;10.15;5.63;;;7.30;99.90;;;;;;10369508;28;20037;-67
2024/01/06 11:18:35;;;;;;;10.73;5.78;;;7.40;99.90;;;;;;10352689;28;20647;-66
2024/01/06 11:23:35;;;;;;;13.07;6.10;;;7.40;99.90;;;;;;10361420;28;20509;-66
2024/01/06 11:28:46;;;;;;;11.60;5.72;;;7.30;99.90;;;;;;10362759;28;20029;-67
2024/01/06 11:33:51;;;;;;;8.90;5.50;;;7.40;99.90;;;;;;10350370;28;20037;-66
2024/01/06 11:38:52;;;;;;;10.00;5.32;;;7.40;99.90;;;;;;10360941;28;20060;-67
2024/01/06 11:43:52;;;;;;;9.15;6.05;;;7.30;99.90;;;;;;10368727;28;20060;-67
2024/01/06 11:48:53;;;;;;;10.82;6.10;;;7.30;99.90;;;;;;10375678;28;20031;-67
2024/01/06 11:53:54;;;;;;;8.73;5.32;;;7.30;99.90;;;;;;10378933;28;20022;-67
2024/01/06 11:58:55;;;;;;;8.27;5.32;;;7.30;99.90;;;;;;10371159;28;20423;-67
2024/01/06 12:03:56;;;;;;;10.05;6.00;;;7.30;99.90;;;;;;10369954;28;20061;-67
2024/01/06 12:09:07;;;;;;;9.88;5.25;;;7.30;99.90;;;;;;10375561;28;20053;-67
2024/01/06 12:14:08;;;;;;;8.70;5.00;;;7.30;99.90;;;;;;10382951;28;20037;-66
2024/01/06 12:19:08;;;;;;;11.45;5.80;;;7.30;99.90;;;;;;10378999;28;20390;-67
2024/01/06 12:24:18;;;;;;;9.85;5.38;;;7.30;99.90;;;;;;10380386;28;20681;-68
2024/01/06 12:29:19;;;;;;;;;;;7.30;99.90;;;;;;10371282;28;20097;-68
2024/01/06 12:34:20;;;;;;;9.90;5.90;;;7.30;99.90;;;;;;10380813;28;19913;-68
2024/01/06 12:39:23;;;;;;;12.88;6.55;;;7.30;99.90;;;;;;10377038;28;20487;-69
2024/01/06 12:44:23;;;;;;;11.85;5.80;;;7.30;99.90;;;;;;10381447;28;20032;-68
2024/01/06 12:49:24;;;;;;;11.40;5.85;;;7.30;99.90;;;;;;10373669;28;20026;-68
2024/01/06 12:54:24;;;;;;;9.55;5.75;;;7.40;99.90;;;;;;10377107;28;20026;-68
2024/01/06 12:59:25;;;;;;;9.60;5.72;;;7.50;99.90;;;;;;10375872;28;20083;-67
2024/01/06 13:04:25;;;;;;;9.95;6.05;;;7.40;99.90;;;;;;10376877;28;20040;-67
2024/01/06 13:09:27;;;;;;;10.20;5.57;;;7.50;99.90;;;;;;10372955;28;20033;-68
2024/01/06 13:14:29;;;;;;;10.23;5.45;;;7.40;99.90;;;;;;10375148;28;20058;-68
2024/01/06 13:19:30;;;;;;;10.82;5.90;;;7.40;99.90;;;;;;10365082;28;20017;-68
2024/01/06 13:24:31;;;;;;;11.07;5.63;;;7.40;99.90;;;;;;10380657;28;20056;-68
2024/01/06 13:29:32;;;;;;;11.23;5.63;;;7.40;99.90;;;;;;10368027;28;20038;-70
2024/01/06 13:34:32;;;;;;;9.73;5.57;;;7.40;99.90;;;;;;10377639;28;20038;-69
2024/01/06 13:39:33;;;;;;;11.43;5.35;;;7.60;99.90;;;;;;10378446;28;20021;-68
2024/01/06 13:44:33;;;;;;;10.07;5.85;;;7.70;99.90;;;;;;10378544;28;20033;-67
2024/01/06 13:49:34;;;;;;;8.93;5.38;;;7.60;99.90;;;;;;10353322;28;20120;-68
2024/01/06 13:54:35;;;;;;;10.82;5.32;;;7.50;99.90;;;;;;10371695;28;20026;-69
2024/01/06 13:59:38;;;;;;;10.40;4.55;;;7.60;99.90;;;;;;10371792;28;20835;-71
2024/01/06 14:04:38;;;;;;;9.32;4.40;;;8.00;99.90;;;;;;10357696;28;20024;-71
2024/01/06 14:09:39;;;;;;;11.05;6.00;;;8.40;99.90;;;;;;10377719;28;20013;-71
2024/01/06 14:14:43;;;;;;;11.45;6.47;;;8.30;99.90;;;;;;10378288;28;20033;-70
2024/01/06 14:19:43;;;;;;;10.90;5.78;;;7.40;99.90;;;;;;10382555;28;20017;-71
2024/01/06 14:24:44;;;;;;;11.52;6.43;;;6.80;99.90;;;;;;10386365;28;20021;-68
2024/01/06 14:29:46;;;;;;;11.32;6.32;;;6.50;99.90;;;;;;10380647;28;20040;-67
2024/01/06 14:34:46;;;;;;;14.45;6.43;;;6.70;99.90;;;;;;10350226;28;20057;-67
2024/01/06 14:39:47;;;;;;;10.75;6.78;;;6.70;99.90;;;;;;10359148;28;20033;-67
2024/01/06 14:44:48;;;;;;;9.55;5.47;;;6.80;99.90;;;;;;10352877;28;20038;-69
2024/01/06 14:49:48;;;;;;;9.60;5.95;;;6.90;99.90;;;;;;10351242;28;20026;-68
2024/01/06 14:54:49;;;;;;;9.73;5.63;;;7.00;99.90;;;;;;10359640;28;20141;-68
2024/01/06 14:59:50;;;;;;;11.63;6.15;;;7.00;99.90;;;;;;10354335;28;20421;-68
2024/01/06 15:04:50;;;;;;;10.52;5.57;;;7.10;99.90;;;;;;10352284;28;20033;-68
2024/01/06 15:09:51;;;;;;;10.82;5.93;;;7.10;99.90;;;;;;10332346;28;20026;-68
2024/01/06 15:14:51;;;;;;;10.23;5.63;;;7.10;99.90;;;;;;10339594;28;20033;-68
2024/01/06 15:19:52;;;;;;;10.73;5.78;;;7.10;99.90;;;;;;10344837;28;20533;-67
2024/01/06 15:24:52;;;;;;;9.98;5.30;;;7.10;99.90;;;;;;10371745;28;20042;-68
2024/01/06 15:29:53;;;;;;;11.98;5.53;;;7.10;99.90;;;;;;10363249;28;20529;-68
2024/01/06 15:34:54;;;;;;;11.82;5.65;;;7.10;99.90;;;;;;10368543;28;20037;-72
2024/01/06 15:39:54;;;;;;;10.60;5.78;;;7.10;99.90;;;;;;10375899;28;20022;-68
2024/01/06 15:44:55;;;;;;;11.02;5.68;;;8.10;99.90;;;;;;10364218;28;20430;-67
2024/01/06 15:49:55;;;;;;;10.15;5.30;;;7.20;99.90;;;;;;10369305;28;20042;-68
2024/01/06 15:54:56;;;;;;;9.60;5.10;;;7.20;99.90;;;;;;10370509;28;20026;-66
2024/01/06 15:59:57;;;;;;;12.02;5.70;;;7.20;99.90;;;;;;10361603;28;20116;-68
2024/01/06 16:04:58;;;;;;;9.90;5.57;;;7.20;99.90;;;;;;10366195;28;20160;-67
2024/01/06 16:09:59;;;;;;;8.75;4.65;;;7.20;99.90;;;;;;10369875;28;20461;-68
2024/01/06 16:15:00;;;;;;;8.90;5.43;;;7.10;99.90;;;;;;10370697;28;20394;-67
2024/01/06 16:20:01;;;;;;;8.68;5.18;;;7.10;99.90;;;;;;10368293;28;20034;-69
2024/01/06 16:25:02;;;;;;;8.10;4.97;;;7.10;99.90;;;;;;10357683;28;20030;-69
2024/01/06 16:30:03;;;;;;;11.63;5.72;;;7.10;99.90;;;;;;10366964;28;20068;-68
2024/01/06 16:35:03;;;;;;;9.95;4.72;;;7.10;99.90;;;;;;10367082;28;20022;-68
2024/01/06 16:40:05;;;;;;;10.52;5.68;;;7.40;99.90;;;;;;10363465;28;20093;-68
2024/01/06 16:45:06;;;;;;;12.18;4.80;;;7.50;99.90;;;;;;10355961;28;20040;-68
2024/01/06 16:50:07;;;;;;;12.15;6.10;;;7.40;99.90;;;;;;10365941;28;20052;-68
2024/01/06 16:55:11;;;;;;;9.32;5.30;;;7.30;99.90;;;;;;10365198;28;20029;-69
2024/01/06 17:00:12;;;;;;;10.63;5.35;;;7.30;99.90;;;;;;10366589;28;20028;-69
2024/01/06 17:05:13;;;;;;;8.27;5.00;;;7.00;99.90;;;;;;10368987;28;20570;-69
2024/01/06 17:10:14;;;;;;;9.40;5.22;;;6.90;99.90;;;;;;10359205;28;20022;-67
2024/01/06 17:15:15;;;;;;;10.57;5.20;;;6.90;99.90;;;;;;10365065;28;20030;-68
2024/01/06 17:20:15;;;;;;;9.65;5.05;;;7.00;99.90;;;;;;10366399;28;20052;-66
2024/01/06 17:25:16;;;;;;;9.35;5.18;;;7.00;99.90;;;;;;10349311;28;20030;-67
2024/01/06 17:30:17;;;;;;;6.28;4.40;;;7.00;99.90;;;;;;10376270;28;20075;-67
2024/01/06 17:35:17;;;;;;;9.48;5.00;;;7.00;99.90;;;;;;10368468;28;20434;-67
2024/01/06 17:40:18;;;;;;;8.13;5.05;;;6.90;99.90;;;;;;10352608;28;20020;-68
2024/01/06 17:45:19;;;;;;;8.00;4.32;;;6.90;99.90;;;;;;10350870;28;20026;-67
2024/01/06 17:50:19;;;;;;;7.40;4.43;;;6.90;99.90;;;;;;10367040;28;20033;-67
2024/01/06 17:55:20;;;;;;;9.90;5.28;;;6.90;99.90;;;;;;10370965;28;20042;-68
2024/01/06 18:00:21;;;;;;;8.57;4.93;;;6.90;99.90;;;;;;10364060;28;20030;-67
2024/01/06 18:05:21;;;;;;;7.18;4.50;;;6.90;99.90;;;;;;10366275;28;20433;-68
2024/01/06 18:10:22;;;;;;;9.82;5.22;;;6.90;99.90;;;;;;10370369;28;20113;-68
2024/01/06 18:15:22;;;;;;;7.65;4.57;;;7.10;99.90;;;;;;10369224;28;20080;-68
2024/01/06 18:20:23;;;;;;;10.45;5.20;;;7.10;99.90;;;;;;10369862;28;20171;-68
2024/01/06 18:25:23;;;;;;;7.70;4.65;;;7.10;99.90;;;;;;10367343;28;20042;-67
2024/01/06 18:30:24;;;;;;;8.13;4.80;;;7.10;99.90;;;;;;10372368;28;20141;-68
2024/01/06 18:35:25;;;;;;;10.00;5.38;;;7.00;99.90;;;;;;10364531;28;20031;-67
2024/01/06 18:40:25;;;;;;;7.53;4.72;;;7.00;99.90;;;;;;10365599;28;20125;-67
2024/01/06 18:45:29;;;;;;;9.10;5.00;;;6.90;99.90;;;;;;10368321;28;20061;-67
2024/01/06 18:50:30;;;;;;;10.40;5.20;;;6.90;99.90;;;;;;10371750;28;20109;-67
2024/01/06 18:55:30;;;;;;;8.15;4.70;;;6.90;99.90;;;;;;10374491;28;20034;-67
2024/01/06 19:00:31;;;;;;;7.82;4.72;;;6.90;99.90;;;;;;10373376;28;20017;-67
2024/01/06 19:05:33;;;;;;;9.38;4.82;;;6.90;99.90;;;;;;10377634;28;20133;-67
2024/01/06 19:10:33;;;;;;;9.13;4.57;;;6.90;99.90;;;;;;10364495;28;20113;-67
2024/01/06 19:15:39;;;;;;;7.30;4.70;;;6.90;99.90;;;;;;10358157;28;20486;-67
2024/01/06 19:20:39;;;;;;;9.05;5.07;;;6.90;99.90;;;;;;10371389;28;20081;-67
2024/01/06 19:25:40;;;;;;;9.18;5.18;;;6.80;99.90;;;;;;10375725;28;20052;-67
2024/01/06 19:30:40;;;;;;;9.70;5.43;;;6.80;99.90;;;;;;10376234;28;20445;-67
2024/01/06 19:35:41;;;;;;;8.18;4.80;;;6.80;99.90;;;;;;10370840;28;20044;-67
2024/01/06 19:40:42;;;;;;;10.05;5.32;;;6.80;99.90;;;;;;10370509;28;20311;-67
2024/01/06 19:45:44;;;;;;;8.18;5.00;;;6.80;99.90;;;;;;10371962;28;20041;-67
2024/01/06 19:50:44;;;;;;;8.23;5.35;;;6.80;99.90;;;;;;10374195;28;20398;-67
2024/01/06 19:55:45;;;;;;;9.52;5.22;;;6.80;99.90;;;;;;10377535;28;20050;-67
2024/01/06 20:00:46;;;;;;;8.13;4.63;;;6.80;99.90;;;;;;10374971;28;20448;-67
2024/01/06 20:05:46;;;;;;;8.68;5.00;;;6.80;99.90;;;;;;10356253;28;20624;-67
2024/01/06 20:10:47;;;;;;;8.15;4.93;;;6.70;99.90;;;;;;10370372;28;20113;-67
2024/01/06 20:15:49;;;;;;;8.25;5.07;;;6.70;99.90;;;;;;10362422;28;20030;-67
2024/01/06 20:20:49;;;;;;;8.75;4.68;;;6.70;99.90;;;;;;10372733;28;20580;-67
2024/01/06 20:25:51;;;;;;;9.32;5.22;;;6.70;99.90;;;;;;10353158;28;20072;-67
2024/01/06 20:30:52;;;;;;;8.85;5.40;;;7.70;99.90;;;;;;10371922;28;20092;-67
2024/01/06 20:35:52;;;;;;;8.68;5.03;;;6.70;99.90;;;;;;10370712;28;20502;-67
2024/01/06 20:40:53;;;;;;;10.68;5.90;;;6.70;99.90;;;;;;10378956;28;20072;-67
2024/01/06 20:45:53;;;;;;;8.32;5.38;;;6.70;99.90;;;;;;10376300;28;20040;-66
2024/01/06 20:50:54;;;;;;;9.02;5.13;;;6.70;99.90;;;;;;10369782;28;20022;-66
2024/01/06 20:55:54;;;;;;;9.75;5.15;;;6.70;99.90;;;;;;10347636;28;20406;-66
2024/01/06 21:00:55;;;;;;;10.18;4.82;;;6.70;99.90;;;;;;10361553;28;20475;-66
2024/01/06 21:05:56;;;;;;;7.55;4.90;;;6.60;99.90;;;;;;10355594;28;20030;-66
2024/01/06 21:10:57;;;;;;;8.15;4.75;;;6.60;99.90;;;;;;10362213;28;20100;-67
2024/01/06 21:15:57;;;;;;;6.38;4.40;;;6.60;99.90;;;;;;10360523;28;20501;-66
2024/01/06 21:20:58;;;;;;;6.68;4.65;;;6.60;99.90;;;;;;10363415;28;20017;-66
2024/01/06 21:26:00;;;;;;;6.97;4.45;;;6.60;99.90;;;;;;10347169;28;20059;-66
2024/01/06 21:31:02;;;;;;;8.10;4.55;;;6.60;99.90;;;;;;10365191;28;20808;-66
2024/01/06 21:36:02;;;;;;;8.07;4.53;;;6.60;99.90;;;;;;10363474;28;20022;-66
2024/01/06 21:41:03;;;;;;;6.75;4.50;;;6.60;99.90;;;;;;10359878;28;20032;-64
2024/01/06 21:46:04;;;;;;;8.07;4.53;;;6.60;99.90;;;;;;10362008;28;20076;-66
2024/01/06 21:51:05;;;;;;;6.35;4.15;;;6.50;99.90;;;;;;10360241;28;20044;-66
2024/01/06 21:56:05;;;;;;;8.05;4.85;;;6.60;99.90;;;;;;10362619;28;20032;-66
2024/01/06 22:01:06;;;;;;;7.63;5.00;;;6.60;99.90;;;;;;10352325;28;20037;-65
2024/01/06 22:06:07;;;;;;;8.35;5.15;;;6.50;99.90;;;;;;10361339;28;20021;-66
2024/01/06 22:11:07;;;;;;;7.95;4.32;;;6.50;99.90;;;;;;10359871;28;20021;-66
2024/01/06 22:16:08;;;;;;;9.98;4.53;;;6.50;99.90;;;;;;10367461;28;20378;-66
2024/01/06 22:21:08;;;;;;;7.05;4.43;;;6.50;99.90;;;;;;10362569;28;20026;-66
2024/01/06 22:26:09;;;;;;;7.90;4.57;;;6.50;99.90;;;;;;10364398;28;20398;-65
2024/01/06 22:31:10;;;;;;;8.48;4.85;;;6.50;99.90;;;;;;10363044;28;20048;-66
2024/01/06 22:36:11;;;;;;;6.90;4.53;;;6.50;99.90;;;;;;10356696;28;20509;-65
2024/01/06 22:41:12;;;;;;;7.82;4.60;;;6.50;99.90;;;;;;10360791;28;20585;-67
2024/01/06 22:46:15;;;;;;;7.97;4.30;;;6.50;99.90;;;;;;10359467;28;20034;-67
2024/01/06 22:51:16;;;;;;;8.98;4.95;;;6.50;99.90;;;;;;10365892;28;20087;-67
2024/01/06 22:56:17;;;;;;;7.10;4.68;;;6.50;99.90;;;;;;10357842;28;20598;-67
2024/01/06 23:01:17;;;;;;;8.68;5.05;;;6.50;99.90;;;;;;10358826;28;20625;-67
2024/01/06 23:06:18;;;;;;;9.60;4.82;;;6.50;99.90;;;;;;10349073;28;20105;-66
2024/01/06 23:11:19;;;;;;;9.55;4.68;;;6.50;99.90;;;;;;10365353;28;20080;-67
2024/01/06 23:16:20;;;;;;;7.57;4.55;;;6.40;99.90;;;;;;10342171;28;20099;-67
2024/01/06 23:21:20;;;;;;;9.70;4.90;;;6.50;99.90;;;;;;10363986;28;20021;-66
2024/01/06 23:26:21;;;;;;;7.40;4.63;;;6.40;99.90;;;;;;10364824;28;20048;-67
2024/01/06 23:31:21;;;;;;;9.88;4.57;;;6.40;99.90;;;;;;10363598;28;20057;-66
2024/01/06 23:36:22;;;;;;;8.75;4.72;;;6.40;99.90;;;;;;10350240;28;20498;-66
2024/01/06 23:41:22;;;;;;;7.25;4.28;;;6.40;99.90;;;;;;10363772;28;20061;-66
2024/01/06 23:46:25;;;;;;;8.63;5.10;;;6.40;99.90;;;;;;10375277;28;20018;-67
2024/01/06 23:51:27;;;;;;;7.60;4.40;;;6.40;99.90;;;;;;10376405;28;20516;-67
2024/01/06 23:56:30;;;;;;;8.98;4.70;;;6.40;99.90;;;;;;10366484;28;20113;-67
